Time;durP1;ratioP1;P1;durP2;ratioP2;P2;SDS_P1;SDS_P2;PMS_P1;PMS_P2;Temp;Humidity;BMP_temperature;BMP_pressure;BME280_temperature;BME280_humidity;BME280_pressure;Samples;Min_cycle;Max_cycle;Signal;HPM_P1;HPM_P2
2022/05/06 00:01:36;;;;;;;30.62;11.83;;;;;;;5.82;92.28;102048.28;1828730;78;21027;-83
2022/05/06 00:06:31;;;;;;;36.08;11.80;;;;;;;5.79;93.08;102047.33;1733179;82;21072;-83
2022/05/06 00:08:58;;;;;;;40.78;13.08;;;;;;;5.78;91.71;102051.03;1733705;82;21025;-83
2022/05/06 00:11:25;;;;;;;43.35;12.25;;;;;;;5.81;92.04;102058.16;1733583;82;21211;-83
2022/05/06 00:13:52;;;;;;;38.15;12.05;;;;;;;5.82;91.59;102059.80;1733681;82;21021;-83
2022/05/06 00:16:23;;;;;;;40.73;12.23;;;;;;;5.82;91.59;102059.80;1733127;82;21045;-84
2022/05/06 00:18:50;;;;;;;45.08;13.00;;;;;;;5.83;91.09;102061.99;1696452;84;21020;-83
2022/05/06 00:21:16;;;;;;;34.75;12.80;;;;;;;5.83;91.43;102059.32;1696375;84;21063;-83
2022/05/06 00:23:42;;;;;;;38.98;12.25;;;;;;;5.82;90.72;102061.14;1696434;84;21062;-83
2022/05/06 00:26:09;;;;;;;34.55;12.40;;;;;;;5.82;92.29;102057.64;1692043;83;21595;-84
2022/05/06 00:28:36;;;;;;;40.17;13.40;;;;;;;5.79;91.67;102057.52;1688386;85;21064;-83
2022/05/06 00:31:06;;;;;;;38.17;12.30;;;;;;;5.78;91.43;102062.55;1688452;85;21131;-84
2022/05/06 00:33:33;;;;;;;36.80;12.13;;;;;;;5.75;94.28;102060.78;1641119;87;21054;-83
2022/05/06 00:36:02;;;;;;;43.90;13.48;;;;;;;5.73;93.39;102066.82;1641401;87;21126;-84
2022/05/06 00:38:28;;;;;;;44.13;14.47;;;;;;;5.73;92.80;102058.28;1641348;87;21038;-83
2022/05/06 00:40:54;;;;;;;40.40;12.58;;;;;;;5.72;92.76;102062.50;1618315;87;21530;-83
2022/05/06 00:43:25;;;;;;;41.23;13.78;;;;;;;5.70;91.30;102064.84;1641229;87;21203;-83
2022/05/06 00:45:54;;;;;;;44.40;15.10;;;;;;;5.73;92.25;102065.48;1641138;87;21454;-82
2022/05/06 00:48:30;;;;;;;39.78;14.90;;;;;;;5.70;92.42;102064.84;1641523;87;21239;-83
2022/05/06 00:50:59;;;;;;;41.83;13.68;;;;;;;5.71;91.51;102064.35;1546015;92;21063;-83
2022/05/06 00:53:26;;;;;;;49.50;15.50;;;;;;;5.69;92.27;102070.39;1546493;92;21047;-83
2022/05/06 00:55:53;;;;;;;44.53;13.80;;;;;;;5.70;91.91;102069.36;1546183;92;21125;-83
2022/05/06 00:58:20;;;;;;;44.35;15.23;;;;;;;5.70;91.21;102076.05;1543000;92;21106;-83
2022/05/06 01:00:46;;;;;;;45.43;15.50;;;;;;;5.67;92.40;102079.93;1546357;92;21123;-83
2022/05/06 01:03:13;;;;;;;48.45;15.68;;;;;;;5.66;94.11;102081.47;1566177;88;21660;-83
2022/05/06 01:05:40;;;;;;;49.27;15.35;;;;;;;5.67;98.65;102080.45;1595142;88;21012;-83
2022/05/06 01:08:06;;;;;;;44.67;13.78;;;;;;;5.65;99.73;102085.17;1595236;88;21582;-84
2022/05/06 01:10:34;;;;;;;41.00;14.60;;;;;;;5.63;100.00;102076.51;1573962;89;21189;-83
2022/05/06 01:13:00;;;;;;;41.08;14.60;;;;;;;5.60;100.00;102084.91;1595439;88;21488;-83
2022/05/06 01:15:29;;;;;;;42.78;15.20;;;;;;;5.57;100.00;102081.28;1574421;90;20905;-83
2022/05/06 01:17:57;;;;;;;42.17;14.23;;;;;;;5.56;100.00;102084.95;1567864;91;21058;-83
2022/05/06 01:20:25;;;;;;;58.65;16.80;;;;;;;5.53;99.94;102084.84;1547732;91;21038;-83
2022/05/06 01:22:58;;;;;;;44.50;14.73;;;;;;;5.52;99.68;102085.84;1567860;91;21080;-83
2022/05/06 01:25:25;;;;;;;50.00;16.07;;;;;;;5.52;99.59;102087.70;1521241;92;21809;-83
2022/05/06 01:28:02;;;;;;;43.55;15.43;;;;;;;5.49;98.58;102080.05;1552485;90;21135;-83
2022/05/06 01:30:45;;;;;;;47.27;16.57;;;;;;;5.48;98.74;102085.09;1560503;90;21240;-84
2022/05/06 01:33:14;;;;;;;;;;;;;;;5.46;98.84;102085.27;1582461;90;21598;-84
2022/05/06 01:35:54;;;;;;;46.00;16.02;;;;;;;5.44;99.71;102085.47;1580089;90;20550;-84
2022/05/06 01:38:41;;;;;;;45.88;16.67;;;;;;;5.42;97.83;102080.81;1580312;90;21801;-83
2022/05/06 01:41:11;;;;;;;60.52;17.27;;;;;;;5.39;98.93;102090.55;1578381;90;21050;-83
2022/05/06 01:43:43;;;;;;;49.65;16.40;;;;;;;5.38;100.00;102093.39;1580313;90;21098;-83
2022/05/06 01:46:15;;;;;;;49.30;17.02;;;;;;;5.33;99.59;102088.63;1580277;90;21566;-84
2022/05/06 01:48:43;;;;;;;55.85;17.10;;;;;;;5.33;100.00;102091.30;1580371;90;21134;-83
2022/05/06 01:51:15;;;;;;;52.78;16.62;;;;;;;5.32;99.41;102096.30;1580433;90;21240;-84
2022/05/06 01:53:42;;;;;;;54.93;17.82;;;;;;;5.34;99.43;102098.81;1577648;90;21142;-84
2022/05/06 01:58:36;;;;;;;53.15;17.85;;;;;;;5.34;98.16;102094.28;1553083;92;21075;-83
2022/05/06 02:01:03;;;;;;;45.40;16.27;;;;;;;5.33;98.14;102097.16;1553278;92;21105;-84
2022/05/06 02:06:13;;;;;;;51.45;16.85;;;;;;;5.29;100.00;102093.19;1552918;92;21036;-84
2022/05/06 02:08:39;;;;;;;61.45;17.98;;;;;;;5.27;100.00;102104.08;1553117;92;21097;-84
2022/05/06 02:11:06;;;;;;;59.35;18.70;;;;;;;5.24;100.00;102100.45;1553253;92;20944;-83
2022/05/06 02:13:34;;;;;;;62.78;19.05;;;;;;;5.21;100.00;102108.84;1553481;92;21106;-84
2022/05/06 02:16:02;;;;;;;67.92;19.40;;;;;;;5.19;100.00;102108.19;1553171;92;21171;-84
2022/05/06 02:18:29;;;;;;;63.10;18.48;;;;;;;5.15;100.00;102109.59;1553107;92;21650;-84
2022/05/06 02:20:59;;;;;;;59.67;19.87;;;;;;;5.17;100.00;102119.56;1554546;92;21118;-84
2022/05/06 02:23:27;;;;;;;56.10;18.15;;;;;;;5.16;100.00;102119.25;1684074;83;21087;-83
2022/05/06 02:25:53;;;;;;;59.73;17.87;;;;;;;5.14;100.00;102123.43;1689766;83;21027;-82
2022/05/06 02:28:20;;;;;;;54.13;19.07;;;;;;;5.13;100.00;102120.96;1783319;80;21373;-83
2022/05/06 02:33:31;;;;;;;67.00;21.30;;;;;;;5.18;100.00;102127.92;1783262;80;21027;-83
2022/05/06 02:35:59;;;;;;;64.35;21.25;;;;;;;5.21;100.00;102137.72;1782904;80;21471;-83
2022/05/06 02:38:27;;;;;;;74.42;22.75;;;;;;;5.29;100.00;102141.30;1783043;80;20947;-83
2022/05/06 02:40:53;;;;;;;75.57;22.37;;;;;;;5.34;100.00;102143.73;1783327;80;21325;-83
2022/05/06 02:43:19;;;;;;;66.72;22.50;;;;;;;5.39;100.00;102145.86;1783189;80;21061;-83
2022/05/06 02:45:46;;;;;;;63.78;21.25;;;;;;;5.43;100.00;102142.61;1783339;80;20911;-83
2022/05/06 02:48:12;;;;;;;76.20;22.65;;;;;;;5.51;100.00;102147.55;1783090;80;21506;-85
2022/05/06 02:50:38;;;;;;;72.05;21.50;;;;;;;5.58;100.00;102149.27;1783214;80;21078;-84
2022/05/06 02:53:05;;;;;;;72.75;23.85;;;;;;;5.68;100.00;102155.16;1783205;80;21122;-84
2022/05/06 02:55:32;;;;;;;75.12;23.25;;;;;;;5.80;100.00;102158.16;1808295;78;20983;-83
2022/05/06 02:57:59;;;;;;;76.10;23.65;;;;;;;5.89;99.91;102150.34;1832173;77;20980;-83
2022/05/06 03:00:26;;;;;;;79.55;23.98;;;;;;;5.97;100.00;102161.47;1832119;77;20990;-84
2022/05/06 03:02:52;;;;;;;79.97;23.52;;;;;;;6.05;100.00;102164.51;1831858;78;20959;-84
2022/05/06 03:05:18;;;;;;;74.07;24.20;;;;;;;6.15;99.10;102163.70;1831894;77;21830;-81
2022/05/06 03:07:44;;;;;;;77.72;25.23;;;;;;;6.22;97.69;102156.55;1831914;78;20988;-84
2022/05/06 03:10:11;;;;;;;73.52;22.82;;;;;;;6.31;98.02;102162.59;1832070;77;21550;-84
2022/05/06 03:12:38;;;;;;;69.07;22.42;;;;;;;6.42;96.37;102165.27;1832195;78;20952;-83
2022/05/06 03:15:07;;;;;;;85.85;24.32;;;;;;;6.54;96.15;102167.22;1843593;77;21019;-84
2022/05/06 03:17:34;;;;;;;80.97;23.65;;;;;;;6.68;95.57;102172.17;1831494;78;21115;-84
2022/05/06 03:20:01;;;;;;;73.37;23.10;;;;;;;6.86;94.31;102176.22;1831854;77;21003;-83
2022/05/06 03:22:29;;;;;;;74.90;23.55;;;;;;;7.00;92.35;102180.13;1832080;78;20967;-83
2022/05/06 03:24:55;;;;;;;72.85;24.05;;;;;;;7.21;91.93;102177.88;1815680;78;21456;-84
2022/05/06 03:30:08;;;;;;;69.05;22.45;;;;;;;8.00;86.99;102180.55;1831690;78;21058;-84
2022/05/06 03:32:35;;;;;;;71.28;24.35;;;;;;;8.45;85.04;102183.52;1831668;78;21054;-84
2022/05/06 03:35:02;;;;;;;68.05;22.20;;;;;;;9.28;82.99;102182.45;1843113;77;21602;-84
2022/05/06 03:37:28;;;;;;;69.67;23.65;;;;;;;10.05;77.27;102181.69;1832044;78;20924;-86
2022/05/06 03:39:56;;;;;;;65.15;23.22;;;;;;;10.78;72.94;102184.66;1831867;78;21525;-83
2022/05/06 03:42:22;;;;;;;65.37;23.20;;;;;;;11.74;70.06;102181.82;1817792;78;21127;-85
2022/05/06 03:44:48;;;;;;;65.87;24.10;;;;;;;12.59;64.53;102188.89;1817701;78;20856;-84
2022/05/06 03:47:15;;;;;;;68.80;22.95;;;;;;;13.01;61.76;102190.66;1791071;78;20904;-84
2022/05/06 03:49:43;;;;;;;71.87;23.32;;;;;;;13.58;60.18;102190.80;1818006;78;20968;-83
2022/05/06 03:52:09;;;;;;;68.83;24.75;;;;;;;14.15;57.51;102192.66;1734736;82;21051;-84
2022/05/06 03:54:34;;;;;;;67.45;23.90;;;;;;;14.50;55.07;102194.65;1734889;82;21598;-84
2022/05/06 03:57:00;;;;;;;61.77;23.50;;;;;;;14.96;54.27;102197.26;1734736;82;20936;-84
2022/05/06 03:59:26;;;;;;;66.17;23.75;;;;;;;15.27;52.54;102198.52;1734831;82;21670;-84
2022/05/06 04:01:52;;;;;;;69.00;24.02;;;;;;;15.77;50.83;102205.66;1734428;82;21419;-84
2022/05/06 04:04:18;;;;;;;56.33;22.67;;;;;;;15.97;49.17;102205.58;1734961;82;21051;-84
2022/05/06 04:06:44;;;;;;;63.70;23.02;;;;;;;16.32;48.54;102208.67;1734760;82;21747;-81
2022/05/06 04:09:12;;;;;;;59.80;20.80;;;;;;;16.45;46.04;102208.77;1734787;82;20913;-84
2022/05/06 04:11:38;;;;;;;64.82;21.10;;;;;;;16.45;45.64;102206.05;1734978;82;20985;-86
2022/05/06 04:14:04;;;;;;;60.50;22.55;;;;;;;16.77;45.57;102212.86;1734625;82;20861;-83
2022/05/06 04:16:30;;;;;;;54.70;21.50;;;;;;;17.38;44.42;102203.37;1734955;82;21099;-83
2022/05/06 04:18:56;;;;;;;56.45;20.70;;;;;;;17.53;42.54;102211.64;1734585;82;21748;-84
2022/05/06 04:24:07;;;;;;;58.73;21.35;;;;;;;17.47;40.82;102207.22;1734514;82;21091;-84
2022/05/06 04:26:33;;;;;;;58.30;20.75;;;;;;;17.61;40.61;102208.38;1710172;82;21075;-84
2022/05/06 04:29:00;;;;;;;52.93;20.60;;;;;;;18.00;39.72;102212.08;1730502;82;21182;-85
2022/05/06 04:31:26;;;;;;;46.00;19.55;;;;;;;18.51;39.58;102209.37;1734600;82;21009;-84
2022/05/06 04:33:53;;;;;;;49.25;19.32;;;;;;;18.65;38.41;102208.80;1734356;82;20963;-84
2022/05/06 04:36:19;;;;;;;49.38;18.67;;;;;;;18.90;37.92;102205.26;1734825;82;20937;-84
2022/05/06 04:38:45;;;;;;;43.58;17.62;;;;;;;19.17;36.58;102204.91;1713677;82;20880;-84
2022/05/06 04:41:12;;;;;;;49.77;18.02;;;;;;;19.19;36.11;102206.83;1747205;82;21015;-84
2022/05/06 04:43:38;;;;;;;45.20;16.90;;;;;;;19.16;36.29;102208.75;1746729;82;21342;-86
2022/05/06 04:46:03;;;;;;;41.30;16.97;;;;;;;19.41;35.38;102206.45;1747362;82;20931;-83
2022/05/06 04:48:31;;;;;;;43.52;15.72;;;;;;;19.74;34.77;102207.72;1771883;78;21066;-84
2022/05/06 04:50:57;;;;;;;41.02;16.35;;;;;;;19.51;34.43;102207.24;1831780;78;21057;-85
2022/05/06 04:53:23;;;;;;;38.08;14.47;;;;;;;19.44;33.57;102204.00;1831969;77;20963;-83
2022/05/06 04:55:49;;;;;;;41.42;15.08;;;;;;;19.71;33.05;102212.39;1832170;77;21953;-85
2022/05/06 04:58:18;;;;;;;34.25;14.43;;;;;;;19.47;33.05;102210.80;1832151;78;21444;-83
2022/05/06 05:00:44;;;;;;;36.28;13.65;;;;;;;19.42;33.20;102214.95;1832087;78;20956;-85
2022/05/06 05:03:11;;;;;;;39.18;14.43;;;;;;;19.74;33.49;102217.30;1832247;78;20945;-86
2022/05/06 05:05:37;;;;;;;36.60;13.83;;;;;;;20.39;32.50;102220.67;1832178;77;20968;-85
2022/05/06 05:08:04;;;;;;;32.48;13.78;;;;;;;20.30;31.73;102231.98;1832303;78;21071;-87
2022/05/06 05:10:30;;;;;;;34.80;14.87;;;;;;;20.13;32.05;102227.45;1832173;77;21061;-85
2022/05/06 05:12:56;;;;;;;36.63;12.15;;;;;;;20.38;32.03;102230.53;1832174;78;20994;-86
2022/05/06 05:15:22;;;;;;;31.97;11.83;;;;;;;20.54;31.51;102231.27;1832208;77;20986;-86
2022/05/06 05:17:49;;;;;;;32.93;11.97;;;;;;;20.91;30.90;102240.23;1831829;77;20987;-85
2022/05/06 05:20:16;;;;;;;27.60;11.57;;;;;;;21.02;30.88;102228.06;1831538;78;21542;-87
2022/05/06 05:22:42;;;;;;;29.50;11.40;;;;;;;21.09;30.38;102222.25;1831988;78;21058;-83
2022/05/06 05:25:10;;;;;;;31.00;10.75;;;;;;;21.04;29.93;102229.97;1832025;78;21483;-85
2022/05/06 05:27:37;;;;;;;29.85;12.05;;;;;;;21.05;29.87;102222.55;1829935;77;21499;-82
2022/05/06 05:30:07;;;;;;;33.15;11.12;;;;;;;21.06;29.69;102224.17;1828823;78;20979;-83
2022/05/06 05:32:33;;;;;;;28.55;11.08;;;;;;;21.31;29.85;102229.94;1829214;78;21511;-84
2022/05/06 05:35:00;;;;;;;28.95;11.40;;;;;;;21.47;29.83;102223.73;1828936;78;20911;-83
2022/05/06 05:37:26;;;;;;;31.93;11.33;;;;;;;21.69;29.62;102228.11;1829427;78;21015;-85
2022/05/06 05:39:52;;;;;;;28.32;10.75;;;;;;;21.72;29.36;102227.52;1829183;78;20968;-86
2022/05/06 05:42:24;;;;;;;27.13;10.70;;;;;;;21.83;29.74;102226.84;1829315;78;20969;-83
2022/05/06 05:50:19;;;;;;;27.58;10.25;;;;;;;23.60;28.18;102234.77;1800859;79;21002;-84
2022/05/06 05:52:45;;;;;;;36.10;10.98;;;;;;;22.96;27.21;102236.04;1801221;79;21544;-84
2022/05/06 05:55:12;;;;;;;26.85;10.25;;;;;;;22.89;27.49;102231.73;1801061;79;21041;-84
2022/05/06 05:57:38;;;;;;;30.92;10.03;;;;;;;22.71;27.27;102229.87;1801193;78;21110;-89
2022/05/06 06:00:06;;;;;;;25.72;9.50;;;;;;;22.76;27.23;102227.00;1800580;79;21202;-86
2022/05/06 06:02:32;;;;;;;21.15;8.85;;;;;;;22.65;27.71;102228.33;1801097;79;21112;-85
2022/05/06 06:04:58;;;;;;;18.98;8.23;;;;;;;23.11;27.86;102224.73;1801140;79;21068;-87
2022/05/06 06:07:25;;;;;;;27.45;9.23;;;;;;;23.43;27.77;102231.27;1801404;79;20970;-84
2022/05/06 06:09:51;;;;;;;27.73;8.90;;;;;;;23.63;26.29;102223.14;1801063;79;21702;-85
2022/05/06 06:12:17;;;;;;;20.60;8.55;;;;;;;23.34;26.99;102232.54;1801101;79;21009;-86
2022/05/06 06:14:43;;;;;;;22.40;8.58;;;;;;;23.62;26.61;102233.87;1774405;79;21068;-87
2022/05/06 06:17:10;;;;;;;23.50;9.50;;;;;;;23.30;26.49;102228.78;1801512;79;21010;-85
2022/05/06 06:19:36;;;;;;;19.48;7.37;;;;;;;23.49;27.02;102238.29;1800894;79;21005;-85
2022/05/06 06:22:02;;;;;;;18.37;8.00;;;;;;;23.76;26.49;102242.96;1801147;79;21241;-86
2022/05/06 06:24:30;;;;;;;18.55;8.05;;;;;;;23.90;26.41;102241.00;1800769;79;21512;-85
2022/05/06 06:26:58;;;;;;;20.40;7.03;;;;;;;24.25;25.99;102234.41;1797948;78;21062;-84
2022/05/06 06:29:24;;;;;;;28.38;8.30;;;;;;;24.46;26.29;102236.12;1790011;80;21120;-85
2022/05/06 06:31:50;;;;;;;18.77;7.28;;;;;;;24.78;25.23;102239.15;1789981;80;20974;-87
2022/05/06 06:34:16;;;;;;;15.35;6.72;;;;;;;24.71;25.51;102238.80;1789579;80;21111;-85
2022/05/06 06:36:42;;;;;;;17.90;7.30;;;;;;;24.74;24.96;102238.70;1789772;80;20957;-84
2022/05/06 06:39:08;;;;;;;35.20;7.55;;;;;;;24.69;24.96;102239.67;1789944;80;20946;-84
2022/05/06 06:41:35;;;;;;;21.87;6.78;;;;;;;25.22;24.03;102240.77;1792904;79;21061;-86
2022/05/06 06:44:01;;;;;;;18.42;6.95;;;;;;;25.07;24.31;102245.54;1796847;79;21021;-84
2022/05/06 06:46:27;;;;;;;20.27;7.70;;;;;;;25.06;24.14;102235.64;1796783;79;21071;-85
2022/05/06 06:48:53;;;;;;;23.00;6.78;;;;;;;25.48;24.21;102236.13;1796690;79;20982;-87
2022/05/06 06:51:19;;;;;;;18.30;6.45;;;;;;;25.53;23.54;102237.91;1792046;79;20987;-86
2022/05/06 06:53:46;;;;;;;19.45;6.03;;;;;;;25.14;23.25;102233.49;1791855;79;21025;-83
2022/05/06 06:56:12;;;;;;;14.58;5.67;;;;;;;25.12;23.46;102238.51;1796356;79;21502;-85
2022/05/06 06:58:38;;;;;;;17.37;6.17;;;;;;;25.17;23.29;102236.76;1796582;79;21200;-84
2022/05/06 07:01:04;;;;;;;18.02;6.67;;;;;;;24.75;23.40;102245.87;1796636;79;20875;-85
2022/05/06 07:03:30;;;;;;;14.18;5.45;;;;;;;24.68;23.40;102247.70;1767804;79;20982;-84
2022/05/06 07:14:12;;;;;;;24.23;6.08;;;;;;;26.09;23.21;102240.37;1796419;79;21447;-86
2022/05/06 07:16:39;;;;;;;11.18;4.80;;;;;;;26.44;23.20;102236.17;1791944;79;20933;-85
2022/05/06 07:19:05;;;;;;;31.80;6.00;;;;;;;26.24;22.07;102239.87;1796234;79;20978;-86
2022/05/06 07:21:31;;;;;;;13.65;5.22;;;;;;;26.11;22.10;102240.84;1796692;79;20977;-84
2022/05/06 07:23:57;;;;;;;9.05;4.55;;;;;;;26.15;22.20;102233.55;1796733;79;21119;-87
2022/05/06 07:26:24;;;;;;;26.90;5.72;;;;;;;26.54;22.15;102227.58;1791754;79;20974;-83
2022/05/06 07:28:51;;;;;;;13.40;5.45;;;;;;;26.35;22.13;102235.38;1822916;77;21019;-87
2022/05/06 07:31:17;;;;;;;20.37;5.62;;;;;;;26.64;22.03;102225.83;1826318;78;21011;-85
2022/05/06 07:33:43;;;;;;;13.78;5.97;;;;;;;26.90;22.00;102231.28;1826030;78;20968;-84
2022/05/06 07:36:09;;;;;;;30.45;6.00;;;;;;;26.78;21.74;102232.55;1825996;78;21901;-84
2022/05/06 07:38:35;;;;;;;14.53;4.70;;;;;;;26.49;21.71;102222.19;1825886;78;21541;-84
2022/05/06 07:41:03;;;;;;;13.10;4.20;;;;;;;26.21;21.95;102230.86;1825997;78;20948;-83
2022/05/06 07:43:30;;;;;;;22.02;4.42;;;;;;;26.17;21.19;102240.11;1825822;78;20933;-85
2022/05/06 07:45:56;;;;;;;6.03;3.35;;;;;;;25.64;21.18;102225.42;1825726;78;21027;-85
2022/05/06 07:48:22;;;;;;;9.98;3.85;;;;;;;25.76;21.32;102229.74;1825833;78;21364;-84
2022/05/06 07:50:49;;;;;;;14.15;3.75;;;;;;;25.66;21.78;102224.55;1825868;78;20972;-85
2022/05/06 07:53:16;;;;;;;12.47;4.10;;;;;;;26.47;21.43;102221.14;1826002;78;21055;-84
2022/05/06 07:55:43;;;;;;;9.95;4.42;;;;;;;26.68;20.50;102221.28;1826115;77;21011;-84
2022/05/06 07:58:10;;;;;;;11.25;4.33;;;;;;;26.45;20.96;102215.70;1825945;78;21503;-84
2022/05/06 08:00:36;;;;;;;11.18;4.17;;;;;;;26.99;20.95;102213.27;1826049;78;22152;-85
2022/05/06 08:05:49;;;;;;;13.55;4.50;;;;;;;26.29;21.03;102216.19;1825718;78;20928;-83
2022/05/06 08:08:16;;;;;;;10.45;4.83;;;;;;;26.41;21.19;102214.71;1825666;78;21003;-85
2022/05/06 08:10:44;;;;;;;14.75;4.90;;;;;;;26.35;20.71;102219.59;1825967;78;21014;-83
2022/05/06 08:13:10;;;;;;;13.98;5.20;;;;;;;26.15;21.25;102210.59;1825662;77;21942;-85
2022/05/06 08:15:36;;;;;;;16.25;6.03;;;;;;;26.78;21.29;102210.42;1825927;78;20864;-83
2022/05/06 08:18:03;;;;;;;13.68;6.35;;;;;;;27.15;20.63;102204.68;1825762;78;21010;-86
2022/05/06 08:20:29;;;;;;;22.70;6.87;;;;;;;26.93;20.59;102203.52;1825576;78;21031;-84
2022/05/06 08:22:55;;;;;;;18.90;5.83;;;;;;;26.56;20.18;102216.17;1826226;78;21357;-84
2022/05/06 08:25:22;;;;;;;22.77;5.80;;;;;;;26.03;21.04;102209.33;1825730;78;21098;-84
2022/05/06 08:27:49;;;;;;;16.12;5.58;;;;;;;26.21;21.03;102211.51;1793310;77;20987;-85
2022/05/06 08:30:15;;;;;;;13.10;5.00;;;;;;;26.37;20.81;102216.52;1831588;78;21007;-84
2022/05/06 08:32:41;;;;;;;9.88;4.45;;;;;;;26.44;21.45;102214.89;1832143;78;21057;-84
2022/05/06 08:35:09;;;;;;;13.48;5.33;;;;;;;26.36;20.16;102206.04;1832182;78;21077;-82
2022/05/06 08:37:45;;;;;;;13.22;5.08;;;;;;;26.11;20.42;102209.06;1831806;78;21159;-85
2022/05/06 08:42:56;;;;;;;11.78;5.30;;;;;;;26.20;20.69;102197.42;1668134;86;21002;-83
2022/05/06 08:50:57;;;;;;;15.58;5.20;;;;;;;25.44;21.32;102202.00;1667642;86;21037;-82
2022/05/06 08:53:32;;;;;;;22.52;5.67;;;;;;;26.00;20.92;102221.03;1667929;86;21377;-83
2022/05/06 08:56:02;;;;;;;12.20;5.05;;;;;;;25.37;20.99;102212.72;1668169;86;21014;-83
2022/05/06 08:58:34;;;;;;;13.05;5.08;;;;;;;25.17;21.11;102209.16;1667803;86;21154;-86
2022/05/06 09:01:11;;;;;;;17.52;6.47;;;;;;;25.64;21.62;102201.15;1642214;86;21009;-83
2022/05/06 09:03:39;;;;;;;16.93;5.78;;;;;;;26.64;20.63;102205.66;1668109;86;21157;-84
2022/05/06 09:06:19;;;;;;;17.40;6.45;;;;;;;26.40;20.43;102202.04;1667687;86;21541;-84
2022/05/06 09:08:46;;;;;;;16.25;5.67;;;;;;;26.32;21.05;102203.67;1671407;85;21034;-84
2022/05/06 09:11:13;;;;;;;19.60;5.40;;;;;;;26.44;21.03;102203.83;1671547;85;20986;-84
2022/05/06 09:13:55;;;;;;;18.23;6.67;;;;;;;26.03;20.38;102198.82;1671664;85;21037;-84
2022/05/06 09:16:39;;;;;;;22.50;6.75;;;;;;;25.53;20.47;102193.19;1670613;85;21132;-84
2022/05/06 09:19:19;;;;;;;36.68;7.72;;;;;;;25.13;21.21;102202.06;1671217;85;21084;-85
2022/05/06 09:22:13;;;;;;;15.32;6.20;;;;;;;25.25;21.34;102204.24;1671149;85;21046;-84
2022/05/06 09:24:39;;;;;;;19.90;7.12;;;;;;;25.38;20.92;102192.25;1671018;85;21050;-83
2022/05/06 09:27:11;;;;;;;28.40;7.25;;;;;;;25.25;20.89;102205.05;1671343;85;21058;-84
2022/05/06 09:29:52;;;;;;;20.20;7.58;;;;;;;24.73;20.60;102198.48;1611665;88;21082;-84
2022/05/06 09:32:28;;;;;;;18.35;6.67;;;;;;;23.94;21.29;102202.63;1611230;89;21577;-84
2022/05/06 09:34:58;;;;;;;21.17;6.95;;;;;;;24.02;22.17;102184.80;1611713;89;21621;-83
2022/05/06 09:37:42;;;;;;;16.62;6.55;;;;;;;24.32;21.80;102208.59;1643445;86;21042;-83
2022/05/06 09:40:14;;;;;;;19.23;7.00;;;;;;;24.02;21.66;102192.25;1612939;89;21050;-84
2022/05/06 09:43:00;;;;;;;15.25;6.37;;;;;;;23.69;21.41;102200.69;1613056;89;21102;-82
2022/05/06 09:45:38;;;;;;;17.30;6.50;;;;;;;23.25;22.48;102196.67;1556531;90;21460;-83
2022/05/06 09:48:06;;;;;;;26.87;6.87;;;;;;;23.12;22.12;102185.14;1581112;90;21385;-84
2022/05/06 09:50:40;;;;;;;23.30;6.50;;;;;;;22.50;22.42;102191.48;1581190;90;21113;-84
2022/05/06 09:53:12;;;;;;;42.08;8.08;;;;;;;22.21;22.63;102196.65;1581677;90;21062;-83
2022/05/06 09:55:44;;;;;;;23.07;7.47;;;;;;;21.91;23.54;102197.88;1581650;90;21169;-83
2022/05/06 09:58:11;;;;;;;17.15;6.75;;;;;;;21.51;23.90;102194.62;1563017;91;21566;-84
2022/05/06 10:00:38;;;;;;;17.27;6.50;;;;;;;21.49;23.67;102189.97;1563238;91;21136;-83
2022/05/06 10:03:06;;;;;;;16.90;6.42;;;;;;;21.40;23.93;102195.86;1563254;91;21078;-84
2022/05/06 10:05:36;;;;;;;21.20;6.45;;;;;;;21.59;23.87;102187.11;1551906;91;21156;-83
2022/05/06 10:08:08;;;;;;;24.25;8.23;;;;;;;21.30;23.24;102186.62;1550471;92;21237;-86
2022/05/06 10:10:39;;;;;;;19.32;6.53;;;;;;;21.03;23.85;102191.33;1531839;93;21584;-83
2022/05/06 10:13:12;;;;;;;24.65;7.65;;;;;;;20.84;24.49;102192.62;1544241;92;21560;-83
2022/05/06 10:15:39;;;;;;;21.23;7.72;;;;;;;20.70;24.25;102186.73;1541876;92;21168;-84
2022/05/06 10:18:07;;;;;;;27.20;7.03;;;;;;;20.46;24.63;102186.66;1532200;93;21652;-84
2022/05/06 10:20:45;;;;;;;23.77;7.45;;;;;;;20.42;25.08;102184.50;1531941;92;22011;-82
2022/05/06 10:23:12;;;;;;;29.10;7.80;;;;;;;20.50;25.26;102179.50;1532269;91;21134;-83
2022/05/06 10:25:46;;;;;;;24.47;8.18;;;;;;;20.51;25.22;102186.07;1534956;92;21649;-83
2022/05/06 10:34:27;;;;;;;23.52;8.10;;;;;;;20.08;25.58;102182.31;1545898;92;21099;-82
2022/05/06 10:36:55;;;;;;;42.95;9.25;;;;;;;19.94;25.70;102180.23;1569059;89;21047;-83
2022/05/06 10:39:31;;;;;;;27.67;8.20;;;;;;;20.02;25.89;102173.88;1609283;89;21162;-84
2022/05/06 10:42:17;;;;;;;21.68;7.40;;;;;;;20.20;26.83;102182.20;1609648;89;21058;-83
2022/05/06 10:44:48;;;;;;;28.62;7.80;;;;;;;20.24;26.44;102180.30;1609100;89;20991;-83
2022/05/06 10:47:19;;;;;;;21.27;7.53;;;;;;;20.24;25.55;102177.00;1609675;89;21119;-82
2022/05/06 10:49:52;;;;;;;19.70;7.72;;;;;;;20.26;26.59;102176.70;1656493;86;21121;-82
2022/05/06 10:52:28;;;;;;;42.03;8.70;;;;;;;20.35;25.30;102169.50;1683635;85;21038;-82
2022/05/06 10:55:00;;;;;;;31.57;8.28;;;;;;;20.13;25.74;102161.75;1648453;86;21054;-82
2022/05/06 10:57:32;;;;;;;22.15;7.80;;;;;;;19.90;25.86;102161.36;1669169;86;21514;-82
2022/05/06 11:00:07;;;;;;;25.85;8.88;;;;;;;19.67;25.17;102161.50;1663345;86;21336;-82
2022/05/06 11:02:36;;;;;;;24.15;7.10;;;;;;;19.63;25.87;102154.95;1658518;86;21033;-82
2022/05/06 11:05:08;;;;;;;20.23;6.20;;;;;;;20.01;25.87;102158.56;1658327;86;21390;-83
2022/05/06 11:07:37;;;;;;;28.47;6.47;;;;;;;20.00;26.16;102152.28;1653206;86;21133;-82
2022/05/06 11:10:11;;;;;;;20.77;6.80;;;;;;;20.27;26.13;102150.41;1676238;85;21105;-84
2022/05/06 11:12:50;;;;;;;16.17;5.58;;;;;;;20.36;26.45;102151.98;1637994;87;21562;-82
2022/05/06 11:15:19;;;;;;;19.65;5.47;;;;;;;20.38;26.55;102145.64;1638050;87;21069;-83
2022/05/06 11:17:49;;;;;;;16.10;4.60;;;;;;;20.47;26.67;102145.84;1638431;87;21058;-81
2022/05/06 11:20:32;;;;;;;15.20;5.67;;;;;;;20.61;26.33;102146.27;1638048;87;21109;-82
2022/05/06 11:23:07;;;;;;;16.15;5.22;;;;;;;20.31;26.12;102136.41;1606175;88;20998;-82
2022/05/06 11:25:45;;;;;;;15.63;5.80;;;;;;;20.30;26.11;102143.55;1619359;88;21523;-80
2022/05/06 11:30:53;;;;;;;15.93;5.92;;;;;;;20.16;26.33;102136.55;1583358;90;21050;-84
2022/05/06 11:33:27;;;;;;;19.48;5.95;;;;;;;20.46;26.47;102138.18;1594178;90;21145;-82
2022/05/06 11:36:02;;;;;;;22.13;6.37;;;;;;;20.51;26.57;102133.22;1553520;92;21083;-82
2022/05/06 11:38:35;;;;;;;22.67;6.62;;;;;;;20.68;25.87;102138.26;1553429;92;21380;-81
2022/05/06 11:41:12;;;;;;;16.82;5.55;;;;;;;20.51;26.21;102135.40;1543605;93;21480;-83
2022/05/06 11:43:40;;;;;;;57.40;7.87;;;;;;;20.42;26.29;102125.63;1543844;92;21076;-82
2022/05/06 11:48:51;;;;;;;19.23;5.87;;;;;;;20.11;25.70;102127.00;1524992;93;21111;-82
2022/05/06 11:51:30;;;;;;;13.45;5.30;;;;;;;20.11;26.11;102118.23;1498017;95;21560;-82
2022/05/06 11:53:58;;;;;;;22.80;6.37;;;;;;;20.26;25.95;102114.53;1497856;95;21000;-82
2022/05/06 11:56:27;;;;;;;29.52;6.17;;;;;;;20.52;26.07;102115.67;1498120;95;21787;-81
2022/05/06 11:58:56;;;;;;;18.17;5.85;;;;;;;20.45;25.82;102113.28;1498831;95;21659;-84
2022/05/06 12:04:03;;;;;;;25.20;6.55;;;;;;;20.64;25.83;102110.63;1534996;93;21044;-81
2022/05/06 12:06:32;;;;;;;23.07;6.90;;;;;;;20.42;25.59;102106.45;1566924;91;21082;-82
2022/05/06 12:09:22;;;;;;;20.20;6.60;;;;;;;20.31;25.53;102097.26;1563594;90;21722;-82
2022/05/06 12:12:06;;;;;;;19.52;6.80;;;;;;;20.67;25.66;102101.83;1569082;91;21113;-82
2022/05/06 12:14:32;;;;;;;27.65;8.08;;;;;;;20.57;25.44;102091.81;1531473;93;21116;-82
2022/05/06 12:17:01;;;;;;;30.70;9.13;;;;;;;20.34;25.87;102093.94;1495006;94;21170;-82